sensor_id;sensor_type;location;lat;lon;timestamp;P1;durP1;ratioP1;P2;durP2;ratioP2
26820;SDS011;37186;51.394;5.454;2023-05-25T00:00:51;4.80;;;4.70;;
26820;SDS011;37186;51.394;5.454;2023-05-25T00:03:51;4.43;;;4.33;;
26820;SDS011;37186;51.394;5.454;2023-05-25T00:06:54;4.50;;;4.40;;
26820;SDS011;37186;51.394;5.454;2023-05-25T00:09:54;4.90;;;4.80;;
26820;SDS011;37186;51.394;5.454;2023-05-25T00:12:55;4.67;;;4.57;;
26820;SDS011;37186;51.394;5.454;2023-05-25T00:15:56;5.03;;;4.93;;
26820;SDS011;37186;51.394;5.454;2023-05-25T00:18:56;4.77;;;4.67;;
26820;SDS011;37186;51.394;5.454;2023-05-25T00:21:57;4.80;;;4.70;;
26820;SDS011;37186;51.394;5.454;2023-05-25T00:25:01;5.43;;;5.33;;
26820;SDS011;37186;51.394;5.454;2023-05-25T00:28:05;5.43;;;5.33;;
26820;SDS011;37186;51.394;5.454;2023-05-25T00:31:06;5.33;;;5.23;;
26820;SDS011;37186;51.394;5.454;2023-05-25T00:34:06;5.33;;;5.23;;
26820;SDS011;37186;51.394;5.454;2023-05-25T00:37:07;5.37;;;5.27;;
26820;SDS011;37186;51.394;5.454;2023-05-25T00:40:09;5.27;;;5.17;;
26820;SDS011;37186;51.394;5.454;2023-05-25T00:43:12;4.90;;;4.80;;
26820;SDS011;37186;51.394;5.454;2023-05-25T00:46:13;5.20;;;5.10;;
26820;SDS011;37186;51.394;5.454;2023-05-25T00:49:14;5.00;;;4.90;;
26820;SDS011;37186;51.394;5.454;2023-05-25T00:52:17;5.13;;;5.03;;
26820;SDS011;37186;51.394;5.454;2023-05-25T00:55:18;5.23;;;5.13;;
26820;SDS011;37186;51.394;5.454;2023-05-25T00:58:20;5.20;;;5.10;;
26820;SDS011;37186;51.394;5.454;2023-05-25T01:01:25;5.40;;;5.30;;
26820;SDS011;37186;51.394;5.454;2023-05-25T01:04:27;5.50;;;5.40;;
26820;SDS011;37186;51.394;5.454;2023-05-25T01:07:28;5.73;;;5.60;;
26820;SDS011;37186;51.394;5.454;2023-05-25T01:10:30;5.40;;;5.30;;
26820;SDS011;37186;51.394;5.454;2023-05-25T01:13:32;5.20;;;5.10;;
26820;SDS011;37186;51.394;5.454;2023-05-25T01:16:34;5.20;;;5.10;;
26820;SDS011;37186;51.394;5.454;2023-05-25T01:19:36;4.77;;;4.67;;
26820;SDS011;37186;51.394;5.454;2023-05-25T01:22:42;5.03;;;4.93;;
26820;SDS011;37186;51.394;5.454;2023-05-25T01:25:58;4.97;;;4.87;;
26820;SDS011;37186;51.394;5.454;2023-05-25T01:29:02;5.53;;;5.43;;
26820;SDS011;37186;51.394;5.454;2023-05-25T01:32:03;5.57;;;5.43;;
26820;SDS011;37186;51.394;5.454;2023-05-25T01:35:05;5.60;;;5.50;;
26820;SDS011;37186;51.394;5.454;2023-05-25T01:38:07;5.60;;;5.50;;
26820;SDS011;37186;51.394;5.454;2023-05-25T01:41:08;5.20;;;5.10;;
26820;SDS011;37186;51.394;5.454;2023-05-25T01:44:09;5.33;;;5.23;;
26820;SDS011;37186;51.394;5.454;2023-05-25T01:47:20;5.10;;;5.00;;
26820;SDS011;37186;51.394;5.454;2023-05-25T01:51:12;5.00;;;4.90;;
26820;SDS011;37186;51.394;5.454;2023-05-25T01:54:01;4.77;;;4.67;;
26820;SDS011;37186;51.394;5.454;2023-05-25T01:57:07;5.03;;;4.93;;
26820;SDS011;37186;51.394;5.454;2023-05-25T02:00:12;5.00;;;4.90;;
26820;SDS011;37186;51.394;5.454;2023-05-25T02:03:13;5.17;;;5.07;;
26820;SDS011;37186;51.394;5.454;2023-05-25T02:06:14;4.80;;;4.70;;
26820;SDS011;37186;51.394;5.454;2023-05-25T02:09:15;4.87;;;4.77;;
26820;SDS011;37186;51.394;5.454;2023-05-25T02:12:16;5.00;;;4.90;;
26820;SDS011;37186;51.394;5.454;2023-05-25T02:15:16;4.97;;;4.87;;
26820;SDS011;37186;51.394;5.454;2023-05-25T02:18:17;4.53;;;4.43;;
26820;SDS011;37186;51.394;5.454;2023-05-25T02:21:18;4.57;;;4.47;;
26820;SDS011;37186;51.394;5.454;2023-05-25T02:24:19;4.60;;;4.50;;
26820;SDS011;37186;51.394;5.454;2023-05-25T02:27:22;5.00;;;4.90;;
26820;SDS011;37186;51.394;5.454;2023-05-25T02:30:23;4.83;;;4.73;;
26820;SDS011;37186;51.394;5.454;2023-05-25T02:33:23;4.20;;;4.10;;
26820;SDS011;37186;51.394;5.454;2023-05-25T02:36:24;4.00;;;3.90;;
26820;SDS011;37186;51.394;5.454;2023-05-25T02:39:25;4.00;;;3.90;;
26820;SDS011;37186;51.394;5.454;2023-05-25T02:42:26;4.03;;;3.93;;
26820;SDS011;37186;51.394;5.454;2023-05-25T02:45:27;4.27;;;4.17;;
26820;SDS011;37186;51.394;5.454;2023-05-25T02:48:27;4.07;;;3.97;;
26820;SDS011;37186;51.394;5.454;2023-05-25T02:51:28;4.40;;;4.30;;
26820;SDS011;37186;51.394;5.454;2023-05-25T02:54:28;3.97;;;3.87;;
26820;SDS011;37186;51.394;5.454;2023-05-25T02:57:29;3.40;;;3.30;;
26820;SDS011;37186;51.394;5.454;2023-05-25T03:00:29;3.40;;;3.30;;
26820;SDS011;37186;51.394;5.454;2023-05-25T03:03:30;2.93;;;2.83;;
26820;SDS011;37186;51.394;5.454;2023-05-25T03:06:31;3.73;;;3.63;;
26820;SDS011;37186;51.394;5.454;2023-05-25T03:09:32;2.90;;;2.80;;
26820;SDS011;37186;51.394;5.454;2023-05-25T03:12:32;3.00;;;2.90;;
26820;SDS011;37186;51.394;5.454;2023-05-25T03:15:33;3.10;;;3.00;;
26820;SDS011;37186;51.394;5.454;2023-05-25T03:18:33;3.00;;;2.90;;
26820;SDS011;37186;51.394;5.454;2023-05-25T03:21:35;3.00;;;2.90;;
26820;SDS011;37186;51.394;5.454;2023-05-25T03:24:36;3.10;;;3.00;;
26820;SDS011;37186;51.394;5.454;2023-05-25T03:27:40;3.00;;;2.90;;
26820;SDS011;37186;51.394;5.454;2023-05-25T03:30:40;3.00;;;2.90;;
26820;SDS011;37186;51.394;5.454;2023-05-25T03:33:41;3.00;;;2.90;;
26820;SDS011;37186;51.394;5.454;2023-05-25T03:36:41;3.10;;;3.00;;
26820;SDS011;37186;51.394;5.454;2023-05-25T03:39:44;3.20;;;3.10;;
26820;SDS011;37186;51.394;5.454;2023-05-25T03:42:45;3.30;;;3.20;;
26820;SDS011;37186;51.394;5.454;2023-05-25T03:45:45;3.10;;;3.00;;
26820;SDS011;37186;51.394;5.454;2023-05-25T03:48:46;3.00;;;2.90;;
26820;SDS011;37186;51.394;5.454;2023-05-25T03:51:46;3.20;;;3.10;;
26820;SDS011;37186;51.394;5.454;2023-05-25T03:54:47;3.00;;;2.90;;
26820;SDS011;37186;51.394;5.454;2023-05-25T03:57:48;3.00;;;2.90;;
26820;SDS011;37186;51.394;5.454;2023-05-25T04:00:48;3.10;;;3.00;;
26820;SDS011;37186;51.394;5.454;2023-05-25T04:03:50;3.20;;;3.10;;
26820;SDS011;37186;51.394;5.454;2023-05-25T04:06:51;3.10;;;3.00;;
26820;SDS011;37186;51.394;5.454;2023-05-25T04:09:53;3.20;;;3.10;;
26820;SDS011;37186;51.394;5.454;2023-05-25T04:12:53;3.20;;;3.10;;
26820;SDS011;37186;51.394;5.454;2023-05-25T04:15:56;2.90;;;2.80;;
26820;SDS011;37186;51.394;5.454;2023-05-25T04:18:57;3.13;;;3.03;;
26820;SDS011;37186;51.394;5.454;2023-05-25T04:21:57;3.13;;;3.03;;
26820;SDS011;37186;51.394;5.454;2023-05-25T04:24:58;3.20;;;3.10;;
26820;SDS011;37186;51.394;5.454;2023-05-25T04:27:58;3.07;;;2.97;;
26820;SDS011;37186;51.394;5.454;2023-05-25T04:30:59;3.20;;;3.10;;
26820;SDS011;37186;51.394;5.454;2023-05-25T04:34:00;3.20;;;3.10;;
26820;SDS011;37186;51.394;5.454;2023-05-25T04:37:01;3.20;;;3.10;;
26820;SDS011;37186;51.394;5.454;2023-05-25T04:40:07;3.10;;;3.00;;
26820;SDS011;37186;51.394;5.454;2023-05-25T04:43:13;3.00;;;2.90;;
26820;SDS011;37186;51.394;5.454;2023-05-25T04:46:17;3.13;;;3.03;;
26820;SDS011;37186;51.394;5.454;2023-05-25T04:49:17;3.00;;;2.90;;
26820;SDS011;37186;51.394;5.454;2023-05-25T04:52:19;2.80;;;2.70;;
26820;SDS011;37186;51.394;5.454;2023-05-25T04:55:19;3.00;;;2.90;;
26820;SDS011;37186;51.394;5.454;2023-05-25T04:58:23;2.80;;;2.70;;
26820;SDS011;37186;51.394;5.454;2023-05-25T05:01:24;3.00;;;2.90;;
26820;SDS011;37186;51.394;5.454;2023-05-25T05:04:25;3.03;;;2.93;;
26820;SDS011;37186;51.394;5.454;2023-05-25T05:07:25;2.93;;;2.83;;
26820;SDS011;37186;51.394;5.454;2023-05-25T05:10:26;3.00;;;2.90;;
26820;SDS011;37186;51.394;5.454;2023-05-25T05:13:26;2.90;;;2.80;;
26820;SDS011;37186;51.394;5.454;2023-05-25T05:16:27;2.87;;;2.77;;
26820;SDS011;37186;51.394;5.454;2023-05-25T05:19:32;3.00;;;2.90;;
26820;SDS011;37186;51.394;5.454;2023-05-25T05:22:33;3.00;;;2.90;;
26820;SDS011;37186;51.394;5.454;2023-05-25T05:25:33;2.90;;;2.80;;
26820;SDS011;37186;51.394;5.454;2023-05-25T05:28:34;2.90;;;2.80;;
26820;SDS011;37186;51.394;5.454;2023-05-25T05:31:34;3.00;;;2.90;;
26820;SDS011;37186;51.394;5.454;2023-05-25T05:34:35;2.90;;;2.80;;
26820;SDS011;37186;51.394;5.454;2023-05-25T05:37:36;3.00;;;2.90;;
26820;SDS011;37186;51.394;5.454;2023-05-25T05:40:37;3.00;;;2.90;;
26820;SDS011;37186;51.394;5.454;2023-05-25T05:43:37;3.00;;;2.90;;
26820;SDS011;37186;51.394;5.454;2023-05-25T05:46:40;2.87;;;2.77;;
26820;SDS011;37186;51.394;5.454;2023-05-25T05:49:41;3.00;;;2.90;;
26820;SDS011;37186;51.394;5.454;2023-05-25T05:52:42;3.00;;;2.90;;
26820;SDS011;37186;51.394;5.454;2023-05-25T05:55:42;3.10;;;3.00;;
26820;SDS011;37186;51.394;5.454;2023-05-25T05:58:43;3.23;;;3.13;;
26820;SDS011;37186;51.394;5.454;2023-05-25T06:01:44;3.27;;;3.17;;
26820;SDS011;37186;51.394;5.454;2023-05-25T06:04:44;3.20;;;3.10;;
26820;SDS011;37186;51.394;5.454;2023-05-25T06:07:45;3.30;;;3.20;;
26820;SDS011;37186;51.394;5.454;2023-05-25T06:10:46;3.37;;;3.27;;
26820;SDS011;37186;51.394;5.454;2023-05-25T06:13:47;3.50;;;3.40;;
26820;SDS011;37186;51.394;5.454;2023-05-25T06:16:47;3.40;;;3.30;;
26820;SDS011;37186;51.394;5.454;2023-05-25T06:19:49;3.57;;;3.47;;
26820;SDS011;37186;51.394;5.454;2023-05-25T06:22:50;3.57;;;3.47;;
26820;SDS011;37186;51.394;5.454;2023-05-25T06:25:51;3.47;;;3.37;;
26820;SDS011;37186;51.394;5.454;2023-05-25T06:28:52;3.63;;;3.53;;
26820;SDS011;37186;51.394;5.454;2023-05-25T06:31:53;3.57;;;3.47;;
26820;SDS011;37186;51.394;5.454;2023-05-25T06:34:53;3.50;;;3.40;;
26820;SDS011;37186;51.394;5.454;2023-05-25T06:37:54;3.63;;;3.53;;
26820;SDS011;37186;51.394;5.454;2023-05-25T06:40:55;3.63;;;3.53;;
26820;SDS011;37186;51.394;5.454;2023-05-25T06:43:56;3.73;;;3.63;;
26820;SDS011;37186;51.394;5.454;2023-05-25T06:46:56;3.90;;;3.80;;
26820;SDS011;37186;51.394;5.454;2023-05-25T06:49:57;3.47;;;3.37;;
26820;SDS011;37186;51.394;5.454;2023-05-25T06:52:57;3.30;;;3.20;;
26820;SDS011;37186;51.394;5.454;2023-05-25T06:55:58;3.63;;;3.53;;
26820;SDS011;37186;51.394;5.454;2023-05-25T06:58:58;3.70;;;3.60;;
26820;SDS011;37186;51.394;5.454;2023-05-25T07:01:59;3.77;;;3.67;;
26820;SDS011;37186;51.394;5.454;2023-05-25T07:04:59;3.40;;;3.30;;
26820;SDS011;37186;51.394;5.454;2023-05-25T07:08:01;3.50;;;3.40;;
26820;SDS011;37186;51.394;5.454;2023-05-25T07:11:02;3.37;;;3.27;;
26820;SDS011;37186;51.394;5.454;2023-05-25T07:14:02;3.40;;;3.30;;
26820;SDS011;37186;51.394;5.454;2023-05-25T07:17:03;3.30;;;3.20;;
26820;SDS011;37186;51.394;5.454;2023-05-25T07:20:03;3.40;;;3.30;;
26820;SDS011;37186;51.394;5.454;2023-05-25T07:23:05;3.30;;;3.20;;
26820;SDS011;37186;51.394;5.454;2023-05-25T07:26:05;5.27;;;5.17;;
26820;SDS011;37186;51.394;5.454;2023-05-25T07:29:06;5.63;;;5.53;;
26820;SDS011;37186;51.394;5.454;2023-05-25T07:32:06;6.03;;;5.83;;
26820;SDS011;37186;51.394;5.454;2023-05-25T07:35:07;7.37;;;7.17;;
26820;SDS011;37186;51.394;5.454;2023-05-25T07:38:07;5.70;;;5.60;;
26820;SDS011;37186;51.394;5.454;2023-05-25T07:41:08;6.40;;;6.20;;
26820;SDS011;37186;51.394;5.454;2023-05-25T07:44:08;6.50;;;6.30;;
26820;SDS011;37186;51.394;5.454;2023-05-25T07:47:09;7.00;;;6.80;;
26820;SDS011;37186;51.394;5.454;2023-05-25T07:50:10;6.97;;;6.77;;
26820;SDS011;37186;51.394;5.454;2023-05-25T07:53:10;7.27;;;7.07;;
26820;SDS011;37186;51.394;5.454;2023-05-25T07:56:11;8.30;;;8.10;;
26820;SDS011;37186;51.394;5.454;2023-05-25T07:59:12;8.43;;;8.23;;
26820;SDS011;37186;51.394;5.454;2023-05-25T08:02:13;8.10;;;7.90;;
26820;SDS011;37186;51.394;5.454;2023-05-25T08:05:13;8.68;;;8.48;;
26820;SDS011;37186;51.394;5.454;2023-05-25T08:08:14;8.82;;;8.57;;
26820;SDS011;37186;51.394;5.454;2023-05-25T08:11:15;8.82;;;8.57;;
26820;SDS011;37186;51.394;5.454;2023-05-25T08:14:16;9.23;;;8.93;;
26820;SDS011;37186;51.394;5.454;2023-05-25T08:17:16;9.38;;;9.07;;
26820;SDS011;37186;51.394;5.454;2023-05-25T08:20:17;9.68;;;9.38;;
26820;SDS011;37186;51.394;5.454;2023-05-25T08:23:18;10.52;;;10.23;;
26820;SDS011;37186;51.394;5.454;2023-05-25T08:26:18;9.48;;;9.18;;
26820;SDS011;37186;51.394;5.454;2023-05-25T08:29:19;10.18;;;9.88;;
26820;SDS011;37186;51.394;5.454;2023-05-25T08:32:20;11.02;;;10.73;;
26820;SDS011;37186;51.394;5.454;2023-05-25T08:35:20;10.88;;;10.57;;
26820;SDS011;37186;51.394;5.454;2023-05-25T08:38:21;11.15;;;10.85;;
26820;SDS011;37186;51.394;5.454;2023-05-25T08:41:24;10.95;;;10.65;;
26820;SDS011;37186;51.394;5.454;2023-05-25T08:44:25;11.57;;;11.27;;
26820;SDS011;37186;51.394;5.454;2023-05-25T08:47:28;12.32;;;11.93;;
26820;SDS011;37186;51.394;5.454;2023-05-25T08:50:32;12.05;;;11.68;;
26820;SDS011;37186;51.394;5.454;2023-05-25T08:53:35;11.35;;;11.05;;
26820;SDS011;37186;51.394;5.454;2023-05-25T08:56:40;12.30;;;11.90;;
26820;SDS011;37186;51.394;5.454;2023-05-25T09:00:03;11.98;;;11.57;;
26820;SDS011;37186;51.394;5.454;2023-05-25T09:06:16;10.95;;;10.65;;
26820;SDS011;37186;51.394;5.454;2023-05-25T09:09:17;10.45;;;10.15;;
26820;SDS011;37186;51.394;5.454;2023-05-25T09:12:18;9.43;;;9.13;;
26820;SDS011;37186;51.394;5.454;2023-05-25T09:15:20;8.52;;;8.32;;
26820;SDS011;37186;51.394;5.454;2023-05-25T09:18:21;9.55;;;9.25;;
26820;SDS011;37186;51.394;5.454;2023-05-25T09:21:22;9.43;;;9.13;;
26820;SDS011;37186;51.394;5.454;2023-05-25T09:24:24;9.38;;;9.07;;
26820;SDS011;37186;51.394;5.454;2023-05-25T09:27:25;9.77;;;9.48;;
26820;SDS011;37186;51.394;5.454;2023-05-25T09:30:25;9.27;;;8.98;;
26820;SDS011;37186;51.394;5.454;2023-05-25T09:33:31;8.35;;;8.15;;
26820;SDS011;37186;51.394;5.454;2023-05-25T09:36:33;7.97;;;7.78;;
26820;SDS011;37186;51.394;5.454;2023-05-25T09:39:34;7.90;;;7.70;;
26820;SDS011;37186;51.394;5.454;2023-05-25T09:42:35;8.45;;;8.25;;
26820;SDS011;37186;51.394;5.454;2023-05-25T09:45:36;8.02;;;7.82;;
26820;SDS011;37186;51.394;5.454;2023-05-25T09:48:37;8.40;;;8.20;;
26820;SDS011;37186;51.394;5.454;2023-05-25T09:51:38;8.57;;;8.35;;
26820;SDS011;37186;51.394;5.454;2023-05-25T09:54:42;8.60;;;8.38;;
26820;SDS011;37186;51.394;5.454;2023-05-25T09:57:44;8.93;;;8.68;;
26820;SDS011;37186;51.394;5.454;2023-05-25T10:00:45;8.70;;;8.48;;
26820;SDS011;37186;51.394;5.454;2023-05-25T10:03:45;8.57;;;8.38;;
26820;SDS011;37186;51.394;5.454;2023-05-25T10:06:47;8.43;;;8.23;;
26820;SDS011;37186;51.394;5.454;2023-05-25T10:09:51;8.88;;;8.63;;
26820;SDS011;37186;51.394;5.454;2023-05-25T10:12:54;8.30;;;8.10;;
26820;SDS011;37186;51.394;5.454;2023-05-25T10:15:56;8.07;;;7.88;;
26820;SDS011;37186;51.394;5.454;2023-05-25T10:22:03;8.65;;;8.43;;
26820;SDS011;37186;51.394;5.454;2023-05-25T10:28:35;8.55;;;8.35;;
26820;SDS011;37186;51.394;5.454;2023-05-25T10:31:36;7.80;;;7.60;;
26820;SDS011;37186;51.394;5.454;2023-05-25T10:34:37;8.75;;;8.50;;
26820;SDS011;37186;51.394;5.454;2023-05-25T10:37:39;8.90;;;8.65;;
26820;SDS011;37186;51.394;5.454;2023-05-25T10:40:41;9.20;;;8.93;;
26820;SDS011;37186;51.394;5.454;2023-05-25T10:43:49;8.15;;;7.95;;
26820;SDS011;37186;51.394;5.454;2023-05-25T10:46:52;9.23;;;8.93;;
26820;SDS011;37186;51.394;5.454;2023-05-25T10:49:53;10.00;;;9.70;;
26820;SDS011;37186;51.394;5.454;2023-05-25T10:56:04;9.93;;;9.63;;
26820;SDS011;37186;51.394;5.454;2023-05-25T10:59:11;8.65;;;8.43;;
26820;SDS011;37186;51.394;5.454;2023-05-25T11:02:13;9.35;;;9.05;;
26820;SDS011;37186;51.394;5.454;2023-05-25T11:08:46;10.02;;;9.73;;
26820;SDS011;37186;51.394;5.454;2023-05-25T11:15:07;9.68;;;9.38;;
26820;SDS011;37186;51.394;5.454;2023-05-25T11:18:14;9.95;;;9.65;;
26820;SDS011;37186;51.394;5.454;2023-05-25T11:21:16;10.02;;;9.73;;
26820;SDS011;37186;51.394;5.454;2023-05-25T11:24:21;10.13;;;9.82;;
26820;SDS011;37186;51.394;5.454;2023-05-25T11:27:31;10.60;;;10.30;;
26820;SDS011;37186;51.394;5.454;2023-05-25T11:30:32;10.40;;;10.10;;
26820;SDS011;37186;51.394;5.454;2023-05-25T11:33:32;10.75;;;10.45;;
26820;SDS011;37186;51.394;5.454;2023-05-25T11:36:33;11.43;;;11.13;;
26820;SDS011;37186;51.394;5.454;2023-05-25T11:39:35;11.00;;;10.70;;
26820;SDS011;37186;51.394;5.454;2023-05-25T11:42:35;11.35;;;11.05;;
26820;SDS011;37186;51.394;5.454;2023-05-25T11:45:37;10.60;;;10.30;;
26820;SDS011;37186;51.394;5.454;2023-05-25T11:48:41;11.68;;;11.35;;
26820;SDS011;37186;51.394;5.454;2023-05-25T11:51:43;12.10;;;11.70;;
26820;SDS011;37186;51.394;5.454;2023-05-25T11:54:44;11.15;;;10.85;;
26820;SDS011;37186;51.394;5.454;2023-05-25T11:57:45;12.07;;;11.70;;
26820;SDS011;37186;51.394;5.454;2023-05-25T12:00:46;14.32;;;13.93;;
26820;SDS011;37186;51.394;5.454;2023-05-25T12:03:47;17.13;;;16.60;;
26820;SDS011;37186;51.394;5.454;2023-05-25T12:07:02;19.45;;;18.85;;
26820;SDS011;37186;51.394;5.454;2023-05-25T12:10:07;16.95;;;16.45;;
26820;SDS011;37186;51.394;5.454;2023-05-25T12:13:09;17.25;;;16.75;;
26820;SDS011;37186;51.394;5.454;2023-05-25T12:16:12;18.85;;;18.25;;
26820;SDS011;37186;51.394;5.454;2023-05-25T12:19:12;19.08;;;18.48;;
26820;SDS011;37186;51.394;5.454;2023-05-25T12:22:13;20.02;;;19.42;;
26820;SDS011;37186;51.394;5.454;2023-05-25T12:25:17;20.70;;;20.00;;
26820;SDS011;37186;51.394;5.454;2023-05-25T12:28:20;21.02;;;20.33;;
26820;SDS011;37186;51.394;5.454;2023-05-25T12:31:27;19.52;;;18.92;;
26820;SDS011;37186;51.394;5.454;2023-05-25T12:34:29;19.42;;;18.83;;
26820;SDS011;37186;51.394;5.454;2023-05-25T12:37:29;18.25;;;17.65;;
26820;SDS011;37186;51.394;5.454;2023-05-25T12:40:30;16.65;;;16.15;;
26820;SDS011;37186;51.394;5.454;2023-05-25T12:43:38;16.75;;;16.25;;
26820;SDS011;37186;51.394;5.454;2023-05-25T12:46:39;24.80;;;24.00;;
26820;SDS011;37186;51.394;5.454;2023-05-25T12:49:40;14.15;;;13.75;;
26820;SDS011;37186;51.394;5.454;2023-05-25T12:52:43;12.30;;;11.90;;
26820;SDS011;37186;51.394;5.454;2023-05-25T12:55:45;11.95;;;11.57;;
26820;SDS011;37186;51.394;5.454;2023-05-25T12:58:46;12.95;;;12.55;;
26820;SDS011;37186;51.394;5.454;2023-05-25T13:01:46;13.30;;;12.90;;
26820;SDS011;37186;51.394;5.454;2023-05-25T13:04:47;12.60;;;12.20;;
26820;SDS011;37186;51.394;5.454;2023-05-25T13:07:48;12.32;;;11.93;;
26820;SDS011;37186;51.394;5.454;2023-05-25T13:10:49;12.23;;;11.82;;
26820;SDS011;37186;51.394;5.454;2023-05-25T13:13:50;13.43;;;13.02;;
26820;SDS011;37186;51.394;5.454;2023-05-25T13:16:52;13.35;;;12.95;;
26820;SDS011;37186;51.394;5.454;2023-05-25T13:19:53;12.30;;;11.90;;
26820;SDS011;37186;51.394;5.454;2023-05-25T13:22:54;13.55;;;13.15;;
26820;SDS011;37186;51.394;5.454;2023-05-25T13:25:54;12.73;;;12.32;;
26820;SDS011;37186;51.394;5.454;2023-05-25T13:28:55;13.02;;;12.63;;
26820;SDS011;37186;51.394;5.454;2023-05-25T13:31:55;13.57;;;13.18;;
26820;SDS011;37186;51.394;5.454;2023-05-25T13:34:56;14.35;;;13.93;;
26820;SDS011;37186;51.394;5.454;2023-05-25T13:37:58;13.68;;;13.27;;
26820;SDS011;37186;51.394;5.454;2023-05-25T13:40:59;15.00;;;14.52;;
26820;SDS011;37186;51.394;5.454;2023-05-25T13:44:00;17.08;;;16.58;;
26820;SDS011;37186;51.394;5.454;2023-05-25T13:47:01;15.60;;;15.10;;
26820;SDS011;37186;51.394;5.454;2023-05-25T13:50:01;15.25;;;14.75;;
26820;SDS011;37186;51.394;5.454;2023-05-25T13:53:02;17.58;;;17.00;;
26820;SDS011;37186;51.394;5.454;2023-05-25T13:56:02;15.15;;;14.65;;
26820;SDS011;37186;51.394;5.454;2023-05-25T13:59:03;17.35;;;16.83;;
26820;SDS011;37186;51.394;5.454;2023-05-25T14:02:04;16.00;;;15.50;;
26820;SDS011;37186;51.394;5.454;2023-05-25T14:05:04;18.55;;;17.95;;
26820;SDS011;37186;51.394;5.454;2023-05-25T14:08:05;17.38;;;16.85;;
26820;SDS011;37186;51.394;5.454;2023-05-25T14:11:06;17.25;;;16.73;;
26820;SDS011;37186;51.394;5.454;2023-05-25T14:14:07;17.80;;;17.20;;
26820;SDS011;37186;51.394;5.454;2023-05-25T14:17:07;16.58;;;16.08;;
26820;SDS011;37186;51.394;5.454;2023-05-25T14:20:08;18.20;;;17.60;;
26820;SDS011;37186;51.394;5.454;2023-05-25T14:23:09;18.20;;;17.60;;
26820;SDS011;37186;51.394;5.454;2023-05-25T14:26:09;18.30;;;17.70;;
26820;SDS011;37186;51.394;5.454;2023-05-25T14:29:11;17.65;;;17.10;;
26820;SDS011;37186;51.394;5.454;2023-05-25T14:32:12;18.65;;;18.05;;
26820;SDS011;37186;51.394;5.454;2023-05-25T14:35:13;19.05;;;18.45;;
26820;SDS011;37186;51.394;5.454;2023-05-25T14:38:13;20.75;;;20.05;;
26820;SDS011;37186;51.394;5.454;2023-05-25T14:41:14;21.02;;;20.33;;
26820;SDS011;37186;51.394;5.454;2023-05-25T14:44:15;20.08;;;19.45;;
26820;SDS011;37186;51.394;5.454;2023-05-25T14:47:15;20.00;;;19.38;;
26820;SDS011;37186;51.394;5.454;2023-05-25T14:50:16;19.92;;;19.30;;
26820;SDS011;37186;51.394;5.454;2023-05-25T14:53:16;20.23;;;19.58;;
26820;SDS011;37186;51.394;5.454;2023-05-25T14:56:18;21.30;;;20.60;;
26820;SDS011;37186;51.394;5.454;2023-05-25T14:59:20;19.75;;;19.15;;
26820;SDS011;37186;51.394;5.454;2023-05-25T15:02:20;21.67;;;20.98;;
26820;SDS011;37186;51.394;5.454;2023-05-25T15:05:21;15.60;;;15.10;;
26820;SDS011;37186;51.394;5.454;2023-05-25T15:08:21;13.25;;;12.85;;
26820;SDS011;37186;51.394;5.454;2023-05-25T15:11:22;16.98;;;16.45;;
26820;SDS011;37186;51.394;5.454;2023-05-25T15:14:23;22.45;;;21.70;;
26820;SDS011;37186;51.394;5.454;2023-05-25T15:17:24;23.73;;;22.92;;
26820;SDS011;37186;51.394;5.454;2023-05-25T15:20:24;25.52;;;24.67;;
26820;SDS011;37186;51.394;5.454;2023-05-25T15:23:25;28.42;;;27.42;;
26820;SDS011;37186;51.394;5.454;2023-05-25T15:26:25;27.17;;;26.27;;
26820;SDS011;37186;51.394;5.454;2023-05-25T15:29:26;22.25;;;21.55;;
26820;SDS011;37186;51.394;5.454;2023-05-25T15:32:27;19.17;;;18.58;;
26820;SDS011;37186;51.394;5.454;2023-05-25T15:35:27;23.33;;;22.55;;
26820;SDS011;37186;51.394;5.454;2023-05-25T15:38:31;22.67;;;21.98;;
26820;SDS011;37186;51.394;5.454;2023-05-25T15:41:31;24.40;;;23.60;;
26820;SDS011;37186;51.394;5.454;2023-05-25T15:44:32;23.67;;;22.88;;
26820;SDS011;37186;51.394;5.454;2023-05-25T15:47:32;22.13;;;21.42;;
26820;SDS011;37186;51.394;5.454;2023-05-25T15:50:33;21.17;;;20.48;;
26820;SDS011;37186;51.394;5.454;2023-05-25T15:53:33;21.23;;;20.52;;
26820;SDS011;37186;51.394;5.454;2023-05-25T15:56:34;21.75;;;21.05;;
26820;SDS011;37186;51.394;5.454;2023-05-25T15:59:35;24.30;;;23.50;;
26820;SDS011;37186;51.394;5.454;2023-05-25T16:02:36;21.98;;;21.27;;
26820;SDS011;37186;51.394;5.454;2023-05-25T16:05:36;21.33;;;20.63;;
26820;SDS011;37186;51.394;5.454;2023-05-25T16:08:37;24.80;;;24.00;;
26820;SDS011;37186;51.394;5.454;2023-05-25T16:11:38;22.77;;;22.05;;
26820;SDS011;37186;51.394;5.454;2023-05-25T16:14:38;27.98;;;27.08;;
26820;SDS011;37186;51.394;5.454;2023-05-25T16:17:39;21.73;;;21.02;;
26820;SDS011;37186;51.394;5.454;2023-05-25T16:20:40;19.33;;;18.73;;
26820;SDS011;37186;51.394;5.454;2023-05-25T16:23:40;21.15;;;20.48;;
26820;SDS011;37186;51.394;5.454;2023-05-25T16:26:41;19.60;;;18.98;;
26820;SDS011;37186;51.394;5.454;2023-05-25T16:29:41;22.20;;;21.50;;
26820;SDS011;37186;51.394;5.454;2023-05-25T16:32:42;24.17;;;23.35;;
26820;SDS011;37186;51.394;5.454;2023-05-25T16:35:42;22.35;;;21.60;;
26820;SDS011;37186;51.394;5.454;2023-05-25T16:38:43;18.70;;;18.10;;
26820;SDS011;37186;51.394;5.454;2023-05-25T16:41:43;23.67;;;22.88;;
26820;SDS011;37186;51.394;5.454;2023-05-25T16:44:44;19.63;;;19.02;;
26820;SDS011;37186;51.394;5.454;2023-05-25T16:47:44;22.90;;;22.15;;
26820;SDS011;37186;51.394;5.454;2023-05-25T16:50:45;75.20;;;72.30;;
26820;SDS011;37186;51.394;5.454;2023-05-25T16:53:45;34.90;;;33.70;;
26820;SDS011;37186;51.394;5.454;2023-05-25T16:56:46;21.90;;;21.17;;
26820;SDS011;37186;51.394;5.454;2023-05-25T16:59:46;29.77;;;28.75;;
26820;SDS011;37186;51.394;5.454;2023-05-25T17:02:47;24.02;;;23.23;;
26820;SDS011;37186;51.394;5.454;2023-05-25T17:05:47;22.75;;;21.98;;
26820;SDS011;37186;51.394;5.454;2023-05-25T17:08:48;18.65;;;18.05;;
26820;SDS011;37186;51.394;5.454;2023-05-25T17:11:49;18.58;;;17.98;;
26820;SDS011;37186;51.394;5.454;2023-05-25T17:14:49;16.60;;;16.10;;
26820;SDS011;37186;51.394;5.454;2023-05-25T17:17:50;15.63;;;15.13;;
26820;SDS011;37186;51.394;5.454;2023-05-25T17:20:51;16.13;;;15.63;;
26820;SDS011;37186;51.394;5.454;2023-05-25T17:23:51;16.50;;;16.00;;
26820;SDS011;37186;51.394;5.454;2023-05-25T17:26:52;25.55;;;24.67;;
26820;SDS011;37186;51.394;5.454;2023-05-25T17:29:52;37.25;;;35.95;;
26820;SDS011;37186;51.394;5.454;2023-05-25T17:32:53;34.70;;;33.50;;
26820;SDS011;37186;51.394;5.454;2023-05-25T17:36:00;28.95;;;27.92;;
26820;SDS011;37186;51.394;5.454;2023-05-25T17:39:00;32.95;;;31.75;;
26820;SDS011;37186;51.394;5.454;2023-05-25T17:42:01;31.42;;;30.33;;
26820;SDS011;37186;51.394;5.454;2023-05-25T17:45:02;29.02;;;28.02;;
26820;SDS011;37186;51.394;5.454;2023-05-25T17:48:03;29.48;;;28.48;;
26820;SDS011;37186;51.394;5.454;2023-05-25T17:51:03;26.02;;;25.13;;
26820;SDS011;37186;51.394;5.454;2023-05-25T17:54:04;22.05;;;21.35;;
26820;SDS011;37186;51.394;5.454;2023-05-25T17:57:04;18.90;;;18.27;;
26820;SDS011;37186;51.394;5.454;2023-05-25T18:00:05;23.92;;;23.13;;
26820;SDS011;37186;51.394;5.454;2023-05-25T18:03:06;34.50;;;33.25;;
26820;SDS011;37186;51.394;5.454;2023-05-25T18:06:07;26.60;;;25.65;;
26820;SDS011;37186;51.394;5.454;2023-05-25T18:09:07;21.50;;;20.75;;
26820;SDS011;37186;51.394;5.454;2023-05-25T18:12:08;19.17;;;18.52;;
26820;SDS011;37186;51.394;5.454;2023-05-25T18:15:09;63.70;;;61.22;;
26820;SDS011;37186;51.394;5.454;2023-05-25T18:18:11;21.15;;;20.45;;